createdAt,value
2019-04-28T00:00:45.039Z,99282.88
2019-04-28T00:03:13.886Z,99285.11
2019-04-28T00:05:43.819Z,99287.04
2019-04-28T00:08:13.607Z,99288.11
2019-04-28T00:10:43.327Z,99286.30
2019-04-28T00:13:13.486Z,99281.66
2019-04-28T00:15:44.467Z,99284.02
2019-04-28T00:18:14.322Z,99278.89
2019-04-28T00:21:00.965Z,99274.02
2019-04-28T00:23:35.383Z,99284.25
2019-04-28T00:26:04.792Z,99282.00
2019-04-28T00:28:34.600Z,99279.95
2019-04-28T00:31:04.461Z,99273.09
2019-04-28T00:33:34.105Z,99270.89
2019-04-28T00:36:03.858Z,99266.06
2019-04-28T00:38:33.506Z,99269.00
2019-04-28T00:41:03.294Z,99260.98
2019-04-28T00:43:33.063Z,99265.62
2019-04-28T00:46:04.496Z,99263.34
2019-04-28T00:48:34.228Z,99266.91
2019-04-28T00:51:03.917Z,99261.43
2019-04-28T00:53:33.648Z,99258.86
2019-04-28T00:56:03.730Z,99260.91
2019-04-28T00:58:33.434Z,99257.84
2019-04-28T01:01:02.895Z,99255.82
2019-04-28T01:03:32.511Z,99255.22
2019-04-28T01:06:02.064Z,99256.56
2019-04-28T01:08:31.832Z,99251.55
2019-04-28T01:11:01.854Z,99256.61
2019-04-28T01:13:32.028Z,99256.55
2019-04-28T01:16:13.502Z,99257.91
2019-04-28T01:18:50.291Z,99263.19
2019-04-28T01:21:20.372Z,99263.77
2019-04-28T01:23:50.397Z,99265.52
2019-04-28T01:26:20.140Z,99268.77
2019-04-28T01:28:49.913Z,99266.72
2019-04-28T01:31:30.053Z,99269.97
2019-04-28T01:34:02.291Z,99262.17
2019-04-28T01:36:32.403Z,99267.38
2019-04-28T01:39:02.023Z,99265.44
2019-04-28T01:41:31.676Z,99264.86
2019-04-28T01:44:01.512Z,99265.66
2019-04-28T01:46:31.218Z,99261.42
2019-04-28T01:49:00.852Z,99255.23
2019-04-28T01:51:30.629Z,99252.69
2019-04-28T01:54:00.504Z,99249.77
2019-04-28T01:56:30.469Z,99244.05
2019-04-28T01:59:00.416Z,99242.14
2019-04-28T02:01:30.334Z,99243.86
2019-04-28T02:04:00.322Z,99240.26
2019-04-28T02:06:30.155Z,99239.16
2019-04-28T02:09:00.903Z,99238.00
2019-04-28T02:11:30.584Z,99239.63
2019-04-28T02:14:00.244Z,99237.39
2019-04-28T02:16:29.842Z,99248.84
2019-04-28T02:18:59.834Z,99241.94
2019-04-28T02:21:44.125Z,99249.95
2019-04-28T02:24:30.959Z,99248.77
2019-04-28T02:27:01.561Z,99250.64
2019-04-28T02:29:31.740Z,99252.19
2019-04-28T02:32:02.361Z,99252.63
2019-04-28T02:34:32.493Z,99253.36
2019-04-28T02:37:02.300Z,99253.16
2019-04-28T02:39:32.672Z,99255.34
2019-04-28T02:42:02.406Z,99256.83
2019-04-28T02:44:35.045Z,99257.23
2019-04-28T02:47:03.735Z,99262.39
2019-04-28T02:49:40.522Z,99261.36
2019-04-28T02:52:30.896Z,99264.52
2019-04-28T02:55:03.005Z,99263.85
2019-04-28T02:57:32.663Z,99267.38
2019-04-28T03:00:02.451Z,99275.31
2019-04-28T03:02:32.287Z,99277.42
2019-04-28T03:05:02.091Z,99276.01
2019-04-28T03:07:31.832Z,99262.89
2019-04-28T03:10:03.780Z,99267.39
2019-04-28T03:12:33.264Z,99270.99
2019-04-28T03:15:03.002Z,99267.77
2019-04-28T03:17:32.777Z,99265.76
2019-04-28T03:20:02.500Z,99265.44
2019-04-28T03:22:33.657Z,99263.03
2019-04-28T03:25:05.941Z,99264.02
2019-04-28T03:27:42.768Z,99263.94
2019-04-28T03:30:33.762Z,99264.69
2019-04-28T03:33:10.981Z,99264.34
2019-04-28T03:35:34.918Z,99262.19
2019-04-28T03:38:04.610Z,99250.91
2019-04-28T03:40:34.464Z,99256.53
2019-04-28T03:43:04.389Z,99249.03
2019-04-28T03:45:35.911Z,99251.03
2019-04-28T03:48:05.716Z,99243.89
2019-04-28T03:50:35.405Z,99245.75
2019-04-28T03:53:05.159Z,99243.95
2019-04-28T03:55:35.113Z,99243.41
2019-04-28T03:58:05.361Z,99243.05
2019-04-28T04:00:35.304Z,99247.41
2019-04-28T04:03:05.188Z,99249.86
2019-04-28T04:05:35.882Z,99254.77
2019-04-28T04:08:06.103Z,99249.59
2019-04-28T04:10:40.163Z,99243.92
2019-04-28T04:13:11.144Z,99245.22
2019-04-28T04:16:01.611Z,99242.73
2019-04-28T04:18:41.479Z,99245.88
2019-04-28T04:21:12.279Z,99242.98
2019-04-28T04:23:43.222Z,99240.53
2019-04-28T04:26:13.497Z,99245.83
2019-04-28T04:28:43.632Z,99243.40
2019-04-28T04:31:13.859Z,99251.27
2019-04-28T04:33:44.204Z,99254.30
2019-04-28T04:36:14.364Z,99251.34
2019-04-28T04:38:46.463Z,99250.98
2019-04-28T04:41:16.564Z,99251.30
2019-04-28T04:43:47.888Z,99252.55
2019-04-28T04:46:22.068Z,99255.64
2019-04-28T04:48:51.711Z,99254.86
2019-04-28T04:51:21.946Z,99257.45
2019-04-28T04:53:52.333Z,99260.94
2019-04-28T04:56:22.848Z,99257.81
2019-04-28T04:58:53.120Z,99260.19
2019-04-28T05:01:27.663Z,99255.08
2019-04-28T05:03:59.671Z,99260.22
2019-04-28T05:06:37.563Z,99260.38
2019-04-28T05:09:11.944Z,99267.52
2019-04-28T05:11:42.471Z,99273.11
2019-04-28T05:14:12.818Z,99266.23
2019-04-28T05:16:43.349Z,99271.38
2019-04-28T05:19:13.549Z,99272.29
2019-04-28T05:21:44.046Z,99271.07
2019-04-28T05:24:31.198Z,99269.80
2019-04-28T05:27:01.315Z,99276.76
2019-04-28T05:29:31.557Z,99281.52
2019-04-28T05:32:03.405Z,99280.66
2019-04-28T05:34:33.144Z,99279.05
2019-04-28T05:37:03.430Z,99282.36
2019-04-28T05:39:33.721Z,99283.38
2019-04-28T05:42:04.156Z,99279.17
2019-04-28T05:44:37.404Z,99277.31
2019-04-28T05:47:05.895Z,99280.99
2019-04-28T05:49:43.637Z,99279.02
2019-04-28T05:52:33.799Z,99281.74
2019-04-28T05:55:20.326Z,99280.91
2019-04-28T05:58:09.842Z,99291.69
2019-04-28T06:00:41.945Z,99287.84
2019-04-28T06:03:13.708Z,99286.22
2019-04-28T06:05:43.935Z,99287.40
2019-04-28T06:08:21.483Z,99283.75
2019-04-28T06:10:51.798Z,99286.17
2019-04-28T06:13:22.187Z,99289.14
2019-04-28T06:15:52.569Z,99286.54
2019-04-28T06:18:22.911Z,99286.82
2019-04-28T06:20:53.219Z,99296.69
2019-04-28T06:23:23.389Z,99295.85
2019-04-28T06:25:53.640Z,99296.12
2019-04-28T06:28:24.169Z,99292.94
2019-04-28T06:30:54.413Z,99298.41
2019-04-28T06:33:24.522Z,99294.82
2019-04-28T06:35:54.762Z,99288.77
2019-04-28T06:38:25.006Z,99291.06
2019-04-28T06:40:55.154Z,99289.81
2019-04-28T06:43:25.436Z,99289.64
2019-04-28T06:45:55.866Z,99291.41
2019-04-28T06:48:26.348Z,99292.23
2019-04-28T06:50:56.790Z,99285.22
2019-04-28T06:53:27.067Z,99295.55
2019-04-28T06:55:57.455Z,99304.17
2019-04-28T06:58:27.869Z,99304.69
2019-04-28T07:00:58.289Z,99302.78
2019-04-28T07:03:28.636Z,99309.36
2019-04-28T07:05:58.911Z,99308.41
2019-04-28T07:08:29.221Z,99307.16
2019-04-28T07:10:59.385Z,99312.91
2019-04-28T07:13:29.596Z,99310.31
2019-04-28T07:15:59.704Z,99308.77
2019-04-28T07:18:30.019Z,99305.34
2019-04-28T07:21:01.819Z,99311.09
2019-04-28T07:23:33.079Z,99311.73
2019-04-28T07:26:03.442Z,99311.81
2019-04-28T07:28:33.906Z,99313.27
2019-04-28T07:31:04.537Z,99313.65
2019-04-28T07:33:36.289Z,99313.86
2019-04-28T07:36:07.294Z,99305.42
2019-04-28T07:38:37.712Z,99303.44
2019-04-28T07:41:08.127Z,99306.53
2019-04-28T07:43:38.246Z,99300.20
2019-04-28T07:46:08.421Z,99305.38
2019-04-28T07:48:38.621Z,99301.08
2019-04-28T07:51:08.772Z,99310.38
2019-04-28T07:53:52.823Z,99303.17
2019-04-28T07:56:23.403Z,99314.67
2019-04-28T07:58:53.784Z,99313.02
2019-04-28T08:01:24.151Z,99309.17
2019-04-28T08:03:57.376Z,99308.50
2019-04-28T08:06:27.095Z,99304.27
2019-04-28T08:08:57.315Z,99309.77
2019-04-28T08:11:27.523Z,99312.81
2019-04-28T08:13:57.860Z,99311.44
2019-04-28T08:16:28.173Z,99309.02
2019-04-28T08:18:58.709Z,99318.20
2019-04-28T08:21:28.816Z,99325.23
2019-04-28T08:23:59.260Z,99319.38
2019-04-28T08:26:29.646Z,99315.61
2019-04-28T08:29:00.160Z,99324.11
2019-04-28T08:31:50.040Z,99325.94
2019-04-28T08:34:21.775Z,99334.95
2019-04-28T08:36:52.007Z,99328.46
2019-04-28T08:39:25.047Z,99328.20
2019-04-28T08:41:54.630Z,99323.14
2019-04-28T08:44:24.988Z,99324.70
2019-04-28T08:46:55.535Z,99320.70
2019-04-28T08:49:25.793Z,99328.34
2019-04-28T08:51:55.988Z,99325.69
2019-04-28T08:54:26.223Z,99320.31
2019-04-28T08:56:56.593Z,99315.80
2019-04-28T08:59:26.900Z,99323.22
2019-04-28T09:01:57.126Z,99326.06
2019-04-28T09:04:27.241Z,99326.66
2019-04-28T09:06:57.462Z,99328.27
2019-04-28T09:09:27.719Z,99316.64
2019-04-28T09:11:58.135Z,99323.70
2019-04-28T09:14:28.499Z,99321.82
2019-04-28T09:16:58.774Z,99322.00
2019-04-28T09:19:29.143Z,99321.25
2019-04-28T09:21:59.621Z,99324.73
2019-04-28T09:24:30.311Z,99331.30
2019-04-28T09:27:00.939Z,99329.70
2019-04-28T09:29:31.305Z,99328.28
2019-04-28T09:32:01.346Z,99329.29
2019-04-28T09:34:31.671Z,99326.89
2019-04-28T09:37:02.093Z,99328.50
2019-04-28T09:39:43.139Z,99319.99
2019-04-28T09:42:31.415Z,99316.84
2019-04-28T09:45:03.920Z,99320.96
2019-04-28T09:47:34.080Z,99311.45
2019-04-28T09:50:05.317Z,99320.83
2019-04-28T09:52:35.696Z,99316.28
2019-04-28T09:55:07.274Z,99319.00
2019-04-28T09:57:37.814Z,99312.77
2019-04-28T10:00:10.296Z,99315.06
2019-04-28T10:02:40.836Z,99324.70
2019-04-28T10:05:12.181Z,99322.06
2019-04-28T10:07:42.389Z,99328.80
2019-04-28T10:10:13.332Z,99341.34
2019-04-28T10:13:37.785Z,99325.86
2019-04-28T10:16:08.214Z,99323.88
2019-04-28T10:18:38.408Z,99316.75
2019-04-28T10:21:09.032Z,99317.37
2019-04-28T10:23:39.372Z,99306.27
2019-04-28T10:26:09.691Z,99315.20
2019-04-28T10:28:40.268Z,99309.90
2019-04-28T10:31:13.328Z,99315.31
2019-04-28T10:33:43.252Z,99309.95
2019-04-28T10:36:14.910Z,99313.88
2019-04-28T10:38:46.590Z,99312.33
2019-04-28T10:41:21.420Z,99317.38
2019-04-28T10:43:51.682Z,99319.91
2019-04-28T10:46:22.169Z,99347.24
2019-04-28T10:48:52.482Z,99333.50
2019-04-28T10:51:22.748Z,99327.92
2019-04-28T10:53:53.146Z,99325.60
2019-04-28T10:56:23.504Z,99334.16
2019-04-28T10:58:55.208Z,99331.14
2019-04-28T11:01:25.413Z,99325.92
2019-04-28T11:03:57.521Z,99328.82
2019-04-28T11:06:27.053Z,99335.86
2019-04-28T11:09:09.012Z,99331.25
2019-04-28T11:11:39.368Z,99337.48
2019-04-28T11:14:09.470Z,99335.27
2019-04-28T11:16:40.220Z,99324.94
2019-04-28T11:19:11.437Z,99320.58
2019-04-28T11:21:41.680Z,99331.00
2019-04-28T11:24:12.003Z,99324.68
2019-04-28T11:26:42.213Z,99311.23
2019-04-28T11:29:12.559Z,99308.23
2019-04-28T11:31:42.864Z,99314.66
2019-04-28T11:34:20.657Z,99306.17
2019-04-28T11:36:50.985Z,99305.77
2019-04-28T11:39:22.775Z,99306.51
2019-04-28T11:41:53.267Z,99304.19
2019-04-28T11:44:23.409Z,99306.63
2019-04-28T11:46:53.926Z,99308.88
2019-04-28T11:49:24.083Z,99317.58
2019-04-28T11:51:54.181Z,99309.25
2019-04-28T11:54:24.610Z,99306.66
2019-04-28T11:56:54.828Z,99305.98
2019-04-28T11:59:25.551Z,99311.38
2019-04-28T12:01:56.496Z,99308.56
2019-04-28T12:04:27.096Z,99303.55
2019-04-28T12:06:57.414Z,99318.41
2019-04-28T12:09:27.484Z,99305.05
2019-04-28T12:12:02.351Z,99308.34
2019-04-28T12:14:34.051Z,99307.14
2019-04-28T12:17:21.973Z,99307.44
2019-04-28T12:19:56.713Z,99316.01
2019-04-28T12:22:27.213Z,99315.00
2019-04-28T12:24:57.491Z,99315.52
2019-04-28T12:27:27.791Z,99315.44
2019-04-28T12:29:58.108Z,99308.02
2019-04-28T12:32:28.104Z,99312.12
2019-04-28T12:34:58.474Z,99321.53
2019-04-28T12:37:28.851Z,99315.30
2019-04-28T12:39:59.213Z,99322.58
2019-04-28T12:42:29.474Z,99316.77
2019-04-28T12:44:59.586Z,99321.80
2019-04-28T12:47:29.878Z,99329.40
2019-04-28T12:50:10.452Z,99325.55
2019-04-28T12:52:40.782Z,99316.81
2019-04-28T12:55:11.334Z,99322.47
2019-04-28T12:57:41.668Z,99327.08
2019-04-28T13:00:22.647Z,99315.03
2019-04-28T13:03:10.367Z,99318.14
2019-04-28T13:05:42.258Z,99314.34
2019-04-28T13:08:12.548Z,99324.02
2019-04-28T13:10:42.920Z,99329.33
2019-04-28T13:13:13.126Z,99328.45
2019-04-28T13:15:43.477Z,99325.59
2019-04-28T13:18:13.800Z,99327.73
2019-04-28T13:20:43.922Z,99320.26
2019-04-28T13:23:13.969Z,99319.00
2019-04-28T13:25:44.262Z,99323.88
2019-04-28T13:28:14.545Z,99323.16
2019-04-28T13:30:45.156Z,99318.39
2019-04-28T13:33:15.542Z,99323.97
2019-04-28T13:35:45.935Z,99315.29
2019-04-28T13:38:16.369Z,99326.80
2019-04-28T13:40:46.780Z,99322.77
2019-04-28T13:43:17.245Z,99319.17
2019-04-28T13:45:47.563Z,99314.50
2019-04-28T13:48:17.890Z,99318.65
2019-04-28T13:50:49.115Z,99327.09
2019-04-28T13:53:19.688Z,99319.58
2019-04-28T13:55:51.629Z,99319.08
2019-04-28T13:58:32.997Z,99324.73
2019-04-28T14:01:04.706Z,99321.05
2019-04-28T14:03:39.492Z,99316.48
2019-04-28T14:06:28.004Z,99324.00
2019-04-28T14:08:51.723Z,99330.22
2019-04-28T14:11:21.962Z,99327.61
2019-04-28T14:13:52.396Z,99327.34
2019-04-28T14:16:22.583Z,99322.49
2019-04-28T14:18:52.829Z,99328.66
2019-04-28T14:21:23.225Z,99326.91
2019-04-28T14:23:53.686Z,99328.28
2019-04-28T14:26:23.915Z,99327.79
2019-04-28T14:28:54.163Z,99324.38
2019-04-28T14:31:24.601Z,99324.77
2019-04-28T14:33:55.301Z,99325.95
2019-04-28T14:36:25.488Z,99317.37
2019-04-28T14:38:55.865Z,99319.09
2019-04-28T14:41:26.199Z,99318.98
2019-04-28T14:43:56.526Z,99320.16
2019-04-28T14:46:27.062Z,99320.54
2019-04-28T14:48:57.168Z,99319.95
2019-04-28T14:51:27.508Z,99318.83
2019-04-28T14:53:57.781Z,99317.58
2019-04-28T14:56:27.981Z,99317.74
2019-04-28T14:58:58.257Z,99315.53
2019-04-28T15:01:46.450Z,99316.13
2019-04-28T15:04:21.228Z,99315.36
2019-04-28T15:06:59.302Z,99308.37
2019-04-28T15:09:32.968Z,99309.35
2019-04-28T15:12:04.746Z,99314.69
2019-04-28T15:14:35.020Z,99312.64
2019-04-28T15:17:05.354Z,99307.39
2019-04-28T15:19:35.589Z,99317.69
2019-04-28T15:22:06.022Z,99307.51
2019-04-28T15:24:36.244Z,99310.41
2019-04-28T15:27:06.624Z,99309.59
2019-04-28T15:29:36.679Z,99306.92
2019-04-28T15:32:06.993Z,99305.00
2019-04-28T15:34:37.345Z,99309.53
2019-04-28T15:37:09.868Z,99307.87
2019-04-28T15:39:39.719Z,99316.53
2019-04-28T15:42:10.001Z,99313.35
2019-04-28T15:44:40.172Z,99311.18
2019-04-28T15:47:10.285Z,99309.19
2019-04-28T15:49:40.480Z,99306.33
2019-04-28T15:52:10.721Z,99312.04
2019-04-28T16:08:15.369Z,99311.48
2019-04-28T16:10:45.572Z,99310.11
2019-04-28T16:13:15.811Z,99311.60
2019-04-28T16:15:46.096Z,99305.19
2019-04-28T16:18:16.387Z,99310.91
2019-04-28T16:20:46.718Z,99307.24
2019-04-28T16:23:16.914Z,99313.66
2019-04-28T16:25:47.186Z,99308.03
2019-04-28T16:28:17.428Z,99318.66
2019-04-28T16:30:47.557Z,99312.61
2019-04-28T16:33:18.198Z,99319.35
2019-04-28T16:35:48.604Z,99312.11
2019-04-28T16:38:19.137Z,99311.66
2019-04-28T16:40:57.916Z,99315.49
2019-04-28T16:43:30.336Z,99319.02
2019-04-28T16:46:00.474Z,99319.80
2019-04-28T16:48:30.704Z,99318.88
2019-04-28T16:51:01.025Z,99328.66
2019-04-28T16:53:31.115Z,99325.73
2019-04-28T16:56:09.263Z,99325.84
2019-04-28T16:58:47.407Z,99318.11
2019-04-28T17:01:19.136Z,99315.74
2019-04-28T17:03:49.252Z,99312.70
2019-04-28T17:06:19.787Z,99315.82
2019-04-28T17:08:50.253Z,99322.73
2019-04-28T17:11:20.595Z,99325.14
2019-04-28T17:13:50.818Z,99324.19
2019-04-28T17:16:20.934Z,99324.98
2019-04-28T17:18:51.275Z,99323.70
2019-04-28T17:21:21.553Z,99335.39
2019-04-28T17:23:51.662Z,99339.80
2019-04-28T17:26:22.214Z,99346.44
2019-04-28T17:28:52.702Z,99350.89
2019-04-28T17:31:23.164Z,99349.75
2019-04-28T17:33:53.457Z,99354.98
2019-04-28T17:36:23.727Z,99355.99
2019-04-28T17:38:54.250Z,99349.59
2019-04-28T17:41:25.122Z,99354.41
2019-04-28T17:43:55.419Z,99357.59
2019-04-28T17:46:25.817Z,99365.06
2019-04-28T17:49:00.539Z,99369.50
2019-04-28T17:51:31.109Z,99366.39
2019-04-28T17:54:01.213Z,99364.96
2019-04-28T17:56:31.514Z,99370.89
2019-04-28T17:59:01.758Z,99373.35
2019-04-28T18:01:49.743Z,99378.36
2019-04-28T18:04:22.441Z,99375.91
2019-04-28T18:07:00.463Z,99384.05
2019-04-28T18:09:31.003Z,99385.91
2019-04-28T18:12:00.980Z,99394.98
2019-04-28T18:14:31.341Z,99392.43
2019-04-28T18:17:06.534Z,99395.00
2019-04-28T18:19:37.203Z,99400.54
2019-04-28T18:22:07.522Z,99399.28
2019-04-28T18:24:39.923Z,99403.80
2019-04-28T18:27:09.573Z,99405.34
2019-04-28T18:29:39.810Z,99407.90
2019-04-28T18:32:17.626Z,99413.77
2019-04-28T18:34:52.229Z,99411.52
2019-04-28T18:37:24.722Z,99415.44
2019-04-28T18:40:11.541Z,99414.77
2019-04-28T18:42:49.114Z,99419.42
2019-04-28T18:45:19.367Z,99423.64
2019-04-28T18:47:49.648Z,99427.61
2019-04-28T18:50:19.897Z,99429.11
2019-04-28T18:52:50.137Z,99438.36
2019-04-28T18:55:20.618Z,99436.09
2019-04-28T18:57:50.874Z,99436.59
2019-04-28T19:00:22.506Z,99432.88
2019-04-28T19:02:52.795Z,99439.51
2019-04-28T19:05:23.995Z,99437.24
2019-04-28T19:08:02.320Z,99443.63
2019-04-28T19:10:40.297Z,99445.09
2019-04-28T19:13:11.505Z,99456.20
2019-04-28T19:15:41.033Z,99453.86
2019-04-28T19:18:18.557Z,99458.69
2019-04-28T19:20:48.325Z,99468.05
2019-04-28T19:23:18.023Z,99472.90
2019-04-28T19:25:47.805Z,99474.36
2019-04-28T19:28:20.329Z,99480.05
2019-04-28T19:30:50.041Z,99479.00
2019-04-28T19:33:19.608Z,99484.21
2019-04-28T19:35:49.284Z,99487.56
2019-04-28T19:38:18.860Z,99485.86
2019-04-28T19:40:48.518Z,99491.71
2019-04-28T19:43:18.275Z,99487.59
2019-04-28T19:45:49.867Z,99493.64
2019-04-28T19:48:19.508Z,99496.79
2019-04-28T19:50:49.408Z,99502.34
2019-04-28T19:53:19.142Z,99500.31
2019-04-28T19:55:56.480Z,99500.22
2019-04-28T19:58:44.028Z,99502.81
2019-04-28T20:01:21.185Z,99510.20
2019-04-28T20:03:50.779Z,99512.58
2019-04-28T20:06:20.489Z,99520.70
2019-04-28T20:08:50.085Z,99520.23
2019-04-28T20:11:19.905Z,99525.12
2019-04-28T20:13:49.596Z,99538.50
2019-04-28T20:16:19.262Z,99530.48
2019-04-28T20:18:49.152Z,99537.91
2019-04-28T20:21:18.864Z,99539.05
2019-04-28T20:23:48.480Z,99540.34
2019-04-28T20:26:18.156Z,99545.42
2019-04-28T20:28:47.871Z,99552.13
2019-04-28T20:31:17.544Z,99552.66
2019-04-28T20:33:47.333Z,99550.57
2019-04-28T20:36:22.755Z,99546.07
2019-04-28T20:38:53.941Z,99551.02
2019-04-28T20:41:25.263Z,99552.84
2019-04-28T20:43:56.144Z,99554.55
2019-04-28T20:46:25.769Z,99552.77
2019-04-28T20:48:55.596Z,99559.55
2019-04-28T20:51:25.187Z,99562.11
2019-04-28T20:53:54.840Z,99567.45
2019-04-28T20:56:24.593Z,99567.88
2019-04-28T20:58:54.316Z,99567.91
2019-04-28T21:01:24.065Z,99569.39
2019-04-28T21:03:53.650Z,99570.98
2019-04-28T21:06:23.347Z,99566.66
2019-04-28T21:08:52.917Z,99565.50
2019-04-28T21:11:22.574Z,99563.55
2019-04-28T21:13:52.272Z,99561.82
2019-04-28T21:16:21.800Z,99563.70
2019-04-28T21:18:51.333Z,99568.67
2019-04-28T21:21:20.943Z,99566.66
2019-04-28T21:23:50.515Z,99574.70
2019-04-28T21:26:20.306Z,99576.15
2019-04-28T21:28:51.148Z,99573.26
2019-04-28T21:31:20.737Z,99571.92
2019-04-28T21:33:50.587Z,99571.67
2019-04-28T21:36:20.304Z,99572.61
2019-04-28T21:38:50.689Z,99569.72
2019-04-28T21:41:20.400Z,99580.82
2019-04-28T21:43:51.752Z,99573.66
2019-04-28T21:46:32.439Z,99577.28
2019-04-28T21:49:03.756Z,99573.30
2019-04-28T21:51:33.414Z,99564.77
2019-04-28T21:54:03.136Z,99575.19
2019-04-28T21:56:32.753Z,99574.78
2019-04-28T21:59:02.520Z,99579.20
2019-04-28T22:01:32.508Z,99580.31
2019-04-28T22:04:02.180Z,99581.47
2019-04-28T22:06:31.912Z,99577.46
2019-04-28T22:09:01.498Z,99586.83
2019-04-28T22:11:31.266Z,99590.22
2019-04-28T22:14:00.823Z,99593.54
2019-04-28T22:16:30.424Z,99599.14
2019-04-28T22:19:00.466Z,99600.79
2019-04-28T22:21:30.163Z,99606.75
2019-04-28T22:24:10.153Z,99606.92
2019-04-28T22:26:43.077Z,99608.33
2019-04-28T22:29:13.650Z,99611.95
2019-04-28T22:31:44.792Z,99612.49
2019-04-28T22:34:15.882Z,99603.06
2019-04-28T22:36:46.627Z,99607.22
2019-04-28T22:39:16.912Z,99609.42
2019-04-28T22:41:46.567Z,99609.65
2019-04-28T22:44:16.208Z,99608.16
2019-04-28T22:46:45.727Z,99606.29
2019-04-28T22:49:15.512Z,99602.28
2019-04-28T22:51:45.269Z,99602.81
2019-04-28T22:54:19.621Z,99602.25
2019-04-28T22:56:50.946Z,99604.45
2019-04-28T22:59:25.104Z,99595.88
2019-04-28T23:02:02.327Z,99595.72
2019-04-28T23:04:33.764Z,99599.72
2019-04-28T23:07:03.539Z,99609.21
2019-04-28T23:09:33.545Z,99609.71
2019-04-28T23:12:03.883Z,99613.32
2019-04-28T23:14:33.517Z,99619.37
2019-04-28T23:17:03.580Z,99613.69
2019-04-28T23:19:35.020Z,99621.64
2019-04-28T23:22:06.737Z,99615.95
2019-04-28T23:24:36.495Z,99614.55
2019-04-28T23:27:06.301Z,99613.82
2019-04-28T23:29:35.996Z,99613.98
2019-04-28T23:32:05.789Z,99611.84
2019-04-28T23:34:35.525Z,99606.20
2019-04-28T23:37:05.412Z,99616.59
2019-04-28T23:39:35.186Z,99618.75
2019-04-28T23:42:09.066Z,99616.81
2019-04-28T23:44:38.652Z,99608.50
2019-04-28T23:47:08.320Z,99615.88
2019-04-28T23:49:38.038Z,99607.22
2019-04-28T23:52:21.058Z,99608.77
2019-04-28T23:54:52.383Z,99611.94
2019-04-28T23:57:22.103Z,99617.04
2019-04-28T23:59:51.737Z,99614.73
